sensor_id;sensor_type;location;lat;lon;timestamp;P1;durP1;ratioP1;P2;durP2;ratioP2
39612;SDS011;25303;48.896;13.342;2022-10-22T00:00:15;9.40;;;5.80;;
39612;SDS011;25303;48.896;13.342;2022-10-22T00:02:59;7.35;;;4.78;;
39612;SDS011;25303;48.896;13.342;2022-10-22T00:05:42;9.18;;;5.18;;
39612;SDS011;25303;48.896;13.342;2022-10-22T00:08:25;8.40;;;5.00;;
39612;SDS011;25303;48.896;13.342;2022-10-22T00:11:08;8.10;;;5.03;;
39612;SDS011;25303;48.896;13.342;2022-10-22T00:13:53;7.28;;;4.45;;
39612;SDS011;25303;48.896;13.342;2022-10-22T00:16:37;7.03;;;4.30;;
39612;SDS011;25303;48.896;13.342;2022-10-22T00:19:20;8.50;;;4.82;;
39612;SDS011;25303;48.896;13.342;2022-10-22T00:22:03;6.50;;;4.20;;
39612;SDS011;25303;48.896;13.342;2022-10-22T00:24:46;7.55;;;4.00;;
39612;SDS011;25303;48.896;13.342;2022-10-22T00:27:29;5.50;;;3.67;;
39612;SDS011;25303;48.896;13.342;2022-10-22T00:30:12;6.60;;;3.80;;
39612;SDS011;25303;48.896;13.342;2022-10-22T00:32:56;5.35;;;3.90;;
39612;SDS011;25303;48.896;13.342;2022-10-22T00:35:39;5.45;;;3.92;;
39612;SDS011;25303;48.896;13.342;2022-10-22T00:38:22;7.38;;;4.15;;
39612;SDS011;25303;48.896;13.342;2022-10-22T00:41:06;5.35;;;3.65;;
39612;SDS011;25303;48.896;13.342;2022-10-22T00:43:52;7.43;;;3.78;;
39612;SDS011;25303;48.896;13.342;2022-10-22T00:46:36;5.88;;;3.47;;
39612;SDS011;25303;48.896;13.342;2022-10-22T00:49:21;4.15;;;3.20;;
39612;SDS011;25303;48.896;13.342;2022-10-22T00:52:04;4.40;;;3.10;;
39612;SDS011;25303;48.896;13.342;2022-10-22T00:54:47;6.28;;;3.78;;
39612;SDS011;25303;48.896;13.342;2022-10-22T00:57:31;8.25;;;4.32;;
39612;SDS011;25303;48.896;13.342;2022-10-22T01:00:16;5.80;;;3.60;;
39612;SDS011;25303;48.896;13.342;2022-10-22T01:02:59;6.10;;;3.35;;
39612;SDS011;25303;48.896;13.342;2022-10-22T01:05:45;6.80;;;3.58;;
39612;SDS011;25303;48.896;13.342;2022-10-22T01:08:38;7.68;;;3.75;;
39612;SDS011;25303;48.896;13.342;2022-10-22T01:11:31;5.72;;;3.30;;
39612;SDS011;25303;48.896;13.342;2022-10-22T01:14:23;7.25;;;3.95;;
39612;SDS011;25303;48.896;13.342;2022-10-22T01:17:14;5.80;;;3.22;;
39612;SDS011;25303;48.896;13.342;2022-10-22T01:20:07;4.95;;;3.22;;
39612;SDS011;25303;48.896;13.342;2022-10-22T01:23:05;6.93;;;3.38;;
39612;SDS011;25303;48.896;13.342;2022-10-22T01:26:02;6.13;;;3.13;;
39612;SDS011;25303;48.896;13.342;2022-10-22T01:28:51;5.40;;;2.70;;
39612;SDS011;25303;48.896;13.342;2022-10-22T01:31:40;5.88;;;3.03;;
39612;SDS011;25303;48.896;13.342;2022-10-22T01:34:27;5.30;;;3.20;;
39612;SDS011;25303;48.896;13.342;2022-10-22T01:37:12;4.68;;;3.10;;
39612;SDS011;25303;48.896;13.342;2022-10-22T01:39:57;5.22;;;2.80;;
39612;SDS011;25303;48.896;13.342;2022-10-22T01:42:52;7.07;;;3.63;;
39612;SDS011;25303;48.896;13.342;2022-10-22T01:45:41;4.85;;;3.15;;
39612;SDS011;25303;48.896;13.342;2022-10-22T01:48:28;4.88;;;3.47;;
39612;SDS011;25303;48.896;13.342;2022-10-22T01:54:14;5.20;;;2.80;;
39612;SDS011;25303;48.896;13.342;2022-10-22T01:57:07;4.78;;;2.90;;
39612;SDS011;25303;48.896;13.342;2022-10-22T01:59:58;3.80;;;2.63;;
39612;SDS011;25303;48.896;13.342;2022-10-22T02:02:48;4.40;;;2.72;;
39612;SDS011;25303;48.896;13.342;2022-10-22T02:05:42;6.32;;;2.67;;
39612;SDS011;25303;48.896;13.342;2022-10-22T02:08:30;3.67;;;2.30;;
39612;SDS011;25303;48.896;13.342;2022-10-22T02:11:15;4.45;;;2.30;;
39612;SDS011;25303;48.896;13.342;2022-10-22T02:13:58;3.88;;;2.50;;
39612;SDS011;25303;48.896;13.342;2022-10-22T02:16:45;4.03;;;2.15;;
39612;SDS011;25303;48.896;13.342;2022-10-22T02:19:34;5.20;;;2.33;;
39612;SDS011;25303;48.896;13.342;2022-10-22T02:22:21;4.97;;;2.17;;
39612;SDS011;25303;48.896;13.342;2022-10-22T02:25:07;5.65;;;2.50;;
39612;SDS011;25303;48.896;13.342;2022-10-22T02:27:53;3.13;;;1.92;;
39612;SDS011;25303;48.896;13.342;2022-10-22T02:30:45;4.90;;;2.40;;
39612;SDS011;25303;48.896;13.342;2022-10-22T02:33:35;4.57;;;2.38;;
39612;SDS011;25303;48.896;13.342;2022-10-22T02:36:25;5.15;;;3.50;;
39612;SDS011;25303;48.896;13.342;2022-10-22T02:39:08;5.45;;;3.72;;
39612;SDS011;25303;48.896;13.342;2022-10-22T02:41:52;4.43;;;2.60;;
39612;SDS011;25303;48.896;13.342;2022-10-22T02:44:35;3.10;;;2.00;;
39612;SDS011;25303;48.896;13.342;2022-10-22T02:47:18;4.45;;;2.17;;
39612;SDS011;25303;48.896;13.342;2022-10-22T02:50:02;4.47;;;2.20;;
39612;SDS011;25303;48.896;13.342;2022-10-22T02:52:52;5.82;;;3.47;;
39612;SDS011;25303;48.896;13.342;2022-10-22T02:55:35;9.20;;;3.85;;
39612;SDS011;25303;48.896;13.342;2022-10-22T02:58:18;5.78;;;4.00;;
39612;SDS011;25303;48.896;13.342;2022-10-22T03:01:01;5.85;;;3.95;;
39612;SDS011;25303;48.896;13.342;2022-10-22T03:03:44;5.57;;;3.25;;
39612;SDS011;25303;48.896;13.342;2022-10-22T03:06:27;8.90;;;3.92;;
39612;SDS011;25303;48.896;13.342;2022-10-22T03:09:11;5.40;;;3.72;;
39612;SDS011;25303;48.896;13.342;2022-10-22T03:11:54;6.45;;;4.18;;
39612;SDS011;25303;48.896;13.342;2022-10-22T03:14:37;6.68;;;4.15;;
39612;SDS011;25303;48.896;13.342;2022-10-22T03:17:19;7.80;;;4.22;;
39612;SDS011;25303;48.896;13.342;2022-10-22T03:20:03;6.78;;;4.75;;
39612;SDS011;25303;48.896;13.342;2022-10-22T03:22:46;9.95;;;5.25;;
39612;SDS011;25303;48.896;13.342;2022-10-22T03:25:31;10.57;;;5.72;;
39612;SDS011;25303;48.896;13.342;2022-10-22T03:28:15;9.73;;;6.32;;
39612;SDS011;25303;48.896;13.342;2022-10-22T03:30:59;10.38;;;6.40;;
39612;SDS011;25303;48.896;13.342;2022-10-22T03:33:42;10.35;;;6.30;;
39612;SDS011;25303;48.896;13.342;2022-10-22T03:36:25;10.88;;;5.68;;
39612;SDS011;25303;48.896;13.342;2022-10-22T03:39:08;9.30;;;5.55;;
39612;SDS011;25303;48.896;13.342;2022-10-22T03:41:55;9.48;;;5.90;;
39612;SDS011;25303;48.896;13.342;2022-10-22T03:44:38;7.82;;;4.85;;
39612;SDS011;25303;48.896;13.342;2022-10-22T03:47:22;8.55;;;5.38;;
39612;SDS011;25303;48.896;13.342;2022-10-22T03:50:06;7.45;;;4.72;;
39612;SDS011;25303;48.896;13.342;2022-10-22T03:52:50;10.13;;;5.45;;
39612;SDS011;25303;48.896;13.342;2022-10-22T03:55:33;9.38;;;5.18;;
39612;SDS011;25303;48.896;13.342;2022-10-22T03:58:17;7.88;;;5.38;;
39612;SDS011;25303;48.896;13.342;2022-10-22T04:01:03;8.30;;;4.65;;
39612;SDS011;25303;48.896;13.342;2022-10-22T04:03:46;7.60;;;5.13;;
39612;SDS011;25303;48.896;13.342;2022-10-22T04:06:29;6.57;;;4.60;;
39612;SDS011;25303;48.896;13.342;2022-10-22T04:09:12;10.55;;;6.78;;
39612;SDS011;25303;48.896;13.342;2022-10-22T04:11:55;10.05;;;6.55;;
39612;SDS011;25303;48.896;13.342;2022-10-22T04:14:39;9.32;;;5.57;;
39612;SDS011;25303;48.896;13.342;2022-10-22T04:17:22;7.55;;;5.18;;
39612;SDS011;25303;48.896;13.342;2022-10-22T04:20:05;9.30;;;5.47;;
39612;SDS011;25303;48.896;13.342;2022-10-22T04:22:49;7.43;;;5.13;;
39612;SDS011;25303;48.896;13.342;2022-10-22T04:25:32;5.30;;;3.65;;
39612;SDS011;25303;48.896;13.342;2022-10-22T04:28:15;54.13;;;4.15;;
39612;SDS011;25303;48.896;13.342;2022-10-22T04:30:59;34.03;;;3.67;;
39612;SDS011;25303;48.896;13.342;2022-10-22T04:33:42;3.65;;;2.78;;
39612;SDS011;25303;48.896;13.342;2022-10-22T04:36:25;3.42;;;2.50;;
39612;SDS011;25303;48.896;13.342;2022-10-22T04:39:09;5.60;;;3.33;;
39612;SDS011;25303;48.896;13.342;2022-10-22T04:41:52;4.57;;;3.45;;
39612;SDS011;25303;48.896;13.342;2022-10-22T04:44:35;5.60;;;3.45;;
39612;SDS011;25303;48.896;13.342;2022-10-22T04:47:19;5.32;;;3.38;;
39612;SDS011;25303;48.896;13.342;2022-10-22T04:50:02;6.22;;;4.70;;
39612;SDS011;25303;48.896;13.342;2022-10-22T04:52:46;6.85;;;4.60;;
39612;SDS011;25303;48.896;13.342;2022-10-22T04:55:29;7.15;;;4.75;;
39612;SDS011;25303;48.896;13.342;2022-10-22T04:58:16;5.95;;;4.05;;
39612;SDS011;25303;48.896;13.342;2022-10-22T05:00:59;5.45;;;3.72;;
39612;SDS011;25303;48.896;13.342;2022-10-22T05:03:44;9.52;;;5.15;;
39612;SDS011;25303;48.896;13.342;2022-10-22T05:06:28;6.80;;;4.43;;
39612;SDS011;25303;48.896;13.342;2022-10-22T05:09:12;6.43;;;4.15;;
39612;SDS011;25303;48.896;13.342;2022-10-22T05:14:39;6.30;;;4.15;;
39612;SDS011;25303;48.896;13.342;2022-10-22T05:17:25;6.53;;;4.72;;
39612;SDS011;25303;48.896;13.342;2022-10-22T05:20:10;7.88;;;4.75;;
39612;SDS011;25303;48.896;13.342;2022-10-22T05:22:53;5.72;;;3.92;;
39612;SDS011;25303;48.896;13.342;2022-10-22T05:25:36;6.43;;;4.68;;
39612;SDS011;25303;48.896;13.342;2022-10-22T05:28:19;6.45;;;4.50;;
39612;SDS011;25303;48.896;13.342;2022-10-22T05:31:02;10.63;;;4.43;;
39612;SDS011;25303;48.896;13.342;2022-10-22T05:33:46;14.60;;;4.22;;
39612;SDS011;25303;48.896;13.342;2022-10-22T05:36:30;30.00;;;4.63;;
39612;SDS011;25303;48.896;13.342;2022-10-22T05:39:13;166.57;;;7.10;;
39612;SDS011;25303;48.896;13.342;2022-10-22T05:41:56;21.70;;;3.95;;
39612;SDS011;25303;48.896;13.342;2022-10-22T05:44:39;436.90;;;11.68;;
39612;SDS011;25303;48.896;13.342;2022-10-22T05:47:22;10.90;;;3.97;;
39612;SDS011;25303;48.896;13.342;2022-10-22T05:50:06;72.70;;;4.10;;
39612;SDS011;25303;48.896;13.342;2022-10-22T05:52:50;81.70;;;5.70;;
39612;SDS011;25303;48.896;13.342;2022-10-22T05:55:34;154.35;;;4.95;;
39612;SDS011;25303;48.896;13.342;2022-10-22T05:58:19;248.43;;;6.28;;
39612;SDS011;25303;48.896;13.342;2022-10-22T06:01:02;120.13;;;4.95;;
39612;SDS011;25303;48.896;13.342;2022-10-22T06:03:45;19.33;;;3.83;;
39612;SDS011;25303;48.896;13.342;2022-10-22T06:06:30;98.30;;;4.73;;
39612;SDS011;25303;48.896;13.342;2022-10-22T06:09:17;75.57;;;3.55;;
39612;SDS011;25303;48.896;13.342;2022-10-22T06:12:03;87.97;;;3.80;;
39612;SDS011;25303;48.896;13.342;2022-10-22T06:14:49;90.97;;;4.70;;
39612;SDS011;25303;48.896;13.342;2022-10-22T06:17:32;104.43;;;4.57;;
39612;SDS011;25303;48.896;13.342;2022-10-22T06:20:15;129.38;;;4.70;;
39612;SDS011;25303;48.896;13.342;2022-10-22T06:22:58;65.55;;;4.00;;
39612;SDS011;25303;48.896;13.342;2022-10-22T06:25:42;20.10;;;2.88;;
39612;SDS011;25303;48.896;13.342;2022-10-22T06:28:25;36.95;;;2.55;;
39612;SDS011;25303;48.896;13.342;2022-10-22T06:31:08;2.70;;;1.92;;
39612;SDS011;25303;48.896;13.342;2022-10-22T06:33:51;2.38;;;1.90;;
39612;SDS011;25303;48.896;13.342;2022-10-22T06:36:34;3.53;;;1.98;;
39612;SDS011;25303;48.896;13.342;2022-10-22T06:39:17;1.55;;;1.27;;
39612;SDS011;25303;48.896;13.342;2022-10-22T06:42:02;2.90;;;1.73;;
39612;SDS011;25303;48.896;13.342;2022-10-22T06:44:47;20.13;;;1.50;;
39612;SDS011;25303;48.896;13.342;2022-10-22T06:47:30;15.85;;;1.83;;
39612;SDS011;25303;48.896;13.342;2022-10-22T06:50:13;6.88;;;1.50;;
39612;SDS011;25303;48.896;13.342;2022-10-22T06:52:56;86.65;;;2.75;;
39612;SDS011;25303;48.896;13.342;2022-10-22T06:55:39;20.58;;;2.80;;
39612;SDS011;25303;48.896;13.342;2022-10-22T06:58:23;36.85;;;2.75;;
39612;SDS011;25303;48.896;13.342;2022-10-22T07:01:07;65.68;;;4.32;;
39612;SDS011;25303;48.896;13.342;2022-10-22T07:03:51;35.58;;;9.85;;
39612;SDS011;25303;48.896;13.342;2022-10-22T07:06:35;99.07;;;5.20;;
39612;SDS011;25303;48.896;13.342;2022-10-22T07:09:18;232.77;;;8.35;;
39612;SDS011;25303;48.896;13.342;2022-10-22T07:12:01;23.73;;;3.83;;
39612;SDS011;25303;48.896;13.342;2022-10-22T07:14:45;14.32;;;4.40;;
39612;SDS011;25303;48.896;13.342;2022-10-22T07:17:28;5.10;;;3.80;;
39612;SDS011;25303;48.896;13.342;2022-10-22T07:20:11;14.55;;;2.63;;
39612;SDS011;25303;48.896;13.342;2022-10-22T07:22:54;52.85;;;5.78;;
39612;SDS011;25303;48.896;13.342;2022-10-22T07:25:37;27.98;;;4.43;;
39612;SDS011;25303;48.896;13.342;2022-10-22T07:28:19;4.43;;;2.60;;
39612;SDS011;25303;48.896;13.342;2022-10-22T07:31:04;4.25;;;3.00;;
39612;SDS011;25303;48.896;13.342;2022-10-22T07:33:47;7.93;;;3.03;;
39612;SDS011;25303;48.896;13.342;2022-10-22T07:36:30;82.15;;;3.88;;
39612;SDS011;25303;48.896;13.342;2022-10-22T07:39:13;7.93;;;3.40;;
39612;SDS011;25303;48.896;13.342;2022-10-22T07:41:56;4.93;;;3.00;;
39612;SDS011;25303;48.896;13.342;2022-10-22T07:44:39;25.73;;;2.85;;
39612;SDS011;25303;48.896;13.342;2022-10-22T07:47:23;14.98;;;2.13;;
39612;SDS011;25303;48.896;13.342;2022-10-22T07:50:06;144.30;;;5.63;;
39612;SDS011;25303;48.896;13.342;2022-10-22T07:52:49;4.43;;;2.10;;
39612;SDS011;25303;48.896;13.342;2022-10-22T07:55:36;40.47;;;3.17;;
39612;SDS011;25303;48.896;13.342;2022-10-22T07:58:19;16.63;;;2.42;;
39612;SDS011;25303;48.896;13.342;2022-10-22T08:01:03;71.57;;;3.80;;
39612;SDS011;25303;48.896;13.342;2022-10-22T08:03:48;72.97;;;3.88;;
39612;SDS011;25303;48.896;13.342;2022-10-22T08:06:31;12.27;;;2.63;;
39612;SDS011;25303;48.896;13.342;2022-10-22T08:09:14;203.25;;;6.63;;
39612;SDS011;25303;48.896;13.342;2022-10-22T08:11:57;92.82;;;5.63;;
39612;SDS011;25303;48.896;13.342;2022-10-22T08:14:40;7.38;;;3.40;;
39612;SDS011;25303;48.896;13.342;2022-10-22T08:17:23;4.85;;;3.60;;
39612;SDS011;25303;48.896;13.342;2022-10-22T08:20:07;76.70;;;4.57;;
39612;SDS011;25303;48.896;13.342;2022-10-22T08:22:51;24.40;;;3.67;;
39612;SDS011;25303;48.896;13.342;2022-10-22T08:25:34;5.38;;;3.30;;
39612;SDS011;25303;48.896;13.342;2022-10-22T08:28:17;80.03;;;4.97;;
39612;SDS011;25303;48.896;13.342;2022-10-22T08:31:02;7.15;;;3.53;;
39612;SDS011;25303;48.896;13.342;2022-10-22T08:33:45;12.07;;;4.53;;
39612;SDS011;25303;48.896;13.342;2022-10-22T08:36:30;9.18;;;4.50;;
39612;SDS011;25303;48.896;13.342;2022-10-22T08:39:13;6.45;;;4.20;;
39612;SDS011;25303;48.896;13.342;2022-10-22T08:41:57;5.63;;;4.45;;
39612;SDS011;25303;48.896;13.342;2022-10-22T08:44:55;5.28;;;4.05;;
39612;SDS011;25303;48.896;13.342;2022-10-22T08:47:52;7.95;;;4.32;;
39612;SDS011;25303;48.896;13.342;2022-10-22T08:50:49;5.72;;;4.35;;
39612;SDS011;25303;48.896;13.342;2022-10-22T08:53:37;5.90;;;4.30;;
39612;SDS011;25303;48.896;13.342;2022-10-22T08:56:29;6.95;;;5.03;;
39612;SDS011;25303;48.896;13.342;2022-10-22T08:59:13;6.05;;;4.68;;
39612;SDS011;25303;48.896;13.342;2022-10-22T09:02:02;5.47;;;4.28;;
39612;SDS011;25303;48.896;13.342;2022-10-22T09:07:50;8.40;;;5.93;;
39612;SDS011;25303;48.896;13.342;2022-10-22T09:10:35;7.25;;;4.78;;
39612;SDS011;25303;48.896;13.342;2022-10-22T09:13:20;5.75;;;4.55;;
39612;SDS011;25303;48.896;13.342;2022-10-22T09:16:10;6.75;;;4.93;;
39612;SDS011;25303;48.896;13.342;2022-10-22T09:19:00;5.93;;;4.75;;
39612;SDS011;25303;48.896;13.342;2022-10-22T09:21:53;5.45;;;4.22;;
39612;SDS011;25303;48.896;13.342;2022-10-22T09:24:43;5.22;;;3.88;;
39612;SDS011;25303;48.896;13.342;2022-10-22T09:27:29;7.57;;;4.43;;
39612;SDS011;25303;48.896;13.342;2022-10-22T09:30:14;5.13;;;4.03;;
39612;SDS011;25303;48.896;13.342;2022-10-22T09:33:00;5.20;;;4.10;;
39612;SDS011;25303;48.896;13.342;2022-10-22T09:35:50;5.43;;;3.88;;
39612;SDS011;25303;48.896;13.342;2022-10-22T09:38:38;4.75;;;3.67;;
39612;SDS011;25303;48.896;13.342;2022-10-22T09:41:22;3.65;;;3.08;;
39612;SDS011;25303;48.896;13.342;2022-10-22T09:44:08;4.43;;;3.17;;
39612;SDS011;25303;48.896;13.342;2022-10-22T09:46:54;5.13;;;3.65;;
39612;SDS011;25303;48.896;13.342;2022-10-22T09:49:37;3.58;;;3.05;;
39612;SDS011;25303;48.896;13.342;2022-10-22T09:52:22;3.65;;;2.92;;
39612;SDS011;25303;48.896;13.342;2022-10-22T09:55:11;4.00;;;2.72;;
39612;SDS011;25303;48.896;13.342;2022-10-22T09:57:57;4.97;;;3.63;;
39612;SDS011;25303;48.896;13.342;2022-10-22T10:00:44;4.75;;;3.65;;
39612;SDS011;25303;48.896;13.342;2022-10-22T10:03:30;5.68;;;4.40;;
39612;SDS011;25303;48.896;13.342;2022-10-22T10:06:16;3.50;;;2.95;;
39612;SDS011;25303;48.896;13.342;2022-10-22T10:09:00;4.32;;;3.30;;
39612;SDS011;25303;48.896;13.342;2022-10-22T10:11:47;3.78;;;3.10;;
39612;SDS011;25303;48.896;13.342;2022-10-22T10:14:36;4.45;;;3.30;;
39612;SDS011;25303;48.896;13.342;2022-10-22T10:17:27;3.92;;;2.80;;
39612;SDS011;25303;48.896;13.342;2022-10-22T10:20:23;3.97;;;3.00;;
39612;SDS011;25303;48.896;13.342;2022-10-22T10:23:18;4.68;;;3.08;;
39612;SDS011;25303;48.896;13.342;2022-10-22T10:26:06;3.85;;;3.30;;
39612;SDS011;25303;48.896;13.342;2022-10-22T10:28:59;4.40;;;3.05;;
39612;SDS011;25303;48.896;13.342;2022-10-22T10:31:58;4.70;;;3.45;;
39612;SDS011;25303;48.896;13.342;2022-10-22T10:34:55;4.25;;;3.33;;
39612;SDS011;25303;48.896;13.342;2022-10-22T10:37:48;4.95;;;3.78;;
39612;SDS011;25303;48.896;13.342;2022-10-22T10:40:41;2.85;;;2.50;;
39612;SDS011;25303;48.896;13.342;2022-10-22T10:43:31;3.80;;;2.80;;
39612;SDS011;25303;48.896;13.342;2022-10-22T10:49:18;2.70;;;2.50;;
39612;SDS011;25303;48.896;13.342;2022-10-22T10:52:09;3.25;;;2.33;;
39612;SDS011;25303;48.896;13.342;2022-10-22T10:55:04;3.22;;;2.90;;
39612;SDS011;25303;48.896;13.342;2022-10-22T10:57:59;2.83;;;2.63;;
39612;SDS011;25303;48.896;13.342;2022-10-22T11:00:55;3.83;;;2.78;;
39612;SDS011;25303;48.896;13.342;2022-10-22T11:03:50;3.33;;;2.63;;
39612;SDS011;25303;48.896;13.342;2022-10-22T11:06:46;3.00;;;2.70;;
39612;SDS011;25303;48.896;13.342;2022-10-22T11:09:34;2.60;;;2.40;;
39612;SDS011;25303;48.896;13.342;2022-10-22T11:12:20;3.83;;;3.40;;
39612;SDS011;25303;48.896;13.342;2022-10-22T11:15:08;3.03;;;2.65;;
39612;SDS011;25303;48.896;13.342;2022-10-22T11:18:03;3.15;;;2.40;;
39612;SDS011;25303;48.896;13.342;2022-10-22T11:20:56;2.85;;;2.60;;
39612;SDS011;25303;48.896;13.342;2022-10-22T11:23:49;2.20;;;2.00;;
39612;SDS011;25303;48.896;13.342;2022-10-22T11:26:40;2.97;;;2.38;;
39612;SDS011;25303;48.896;13.342;2022-10-22T11:29:27;2.55;;;1.98;;
39612;SDS011;25303;48.896;13.342;2022-10-22T11:32:14;2.65;;;2.08;;
39612;SDS011;25303;48.896;13.342;2022-10-22T11:35:00;1.90;;;1.77;;
39612;SDS011;25303;48.896;13.342;2022-10-22T11:37:46;2.40;;;2.15;;
39612;SDS011;25303;48.896;13.342;2022-10-22T11:40:31;2.15;;;1.70;;
39612;SDS011;25303;48.896;13.342;2022-10-22T11:43:28;2.50;;;1.95;;
39612;SDS011;25303;48.896;13.342;2022-10-22T11:46:24;2.60;;;2.40;;
39612;SDS011;25303;48.896;13.342;2022-10-22T11:49:23;3.90;;;1.95;;
39612;SDS011;25303;48.896;13.342;2022-10-22T11:52:22;5.45;;;2.22;;
39612;SDS011;25303;48.896;13.342;2022-10-22T11:58:25;3.03;;;1.98;;
39612;SDS011;25303;48.896;13.342;2022-10-22T12:01:21;2.53;;;1.90;;
39612;SDS011;25303;48.896;13.342;2022-10-22T12:07:29;3.70;;;1.67;;
39612;SDS011;25303;48.896;13.342;2022-10-22T12:10:15;1.92;;;1.67;;
39612;SDS011;25303;48.896;13.342;2022-10-22T12:13:02;2.17;;;1.70;;
39612;SDS011;25303;48.896;13.342;2022-10-22T12:15:55;1.70;;;1.60;;
39612;SDS011;25303;48.896;13.342;2022-10-22T12:18:40;1.50;;;1.40;;
39612;SDS011;25303;48.896;13.342;2022-10-22T12:21:25;3.55;;;1.80;;
39612;SDS011;25303;48.896;13.342;2022-10-22T12:24:10;2.58;;;1.60;;
39612;SDS011;25303;48.896;13.342;2022-10-22T12:26:55;3.65;;;1.52;;
39612;SDS011;25303;48.896;13.342;2022-10-22T12:29:38;2.80;;;1.90;;
39612;SDS011;25303;48.896;13.342;2022-10-22T12:32:23;2.40;;;1.80;;
39612;SDS011;25303;48.896;13.342;2022-10-22T12:35:17;2.20;;;1.83;;
39612;SDS011;25303;48.896;13.342;2022-10-22T12:38:02;1.95;;;1.45;;
39612;SDS011;25303;48.896;13.342;2022-10-22T12:40:50;1.85;;;1.75;;
39612;SDS011;25303;48.896;13.342;2022-10-22T12:43:36;3.13;;;1.63;;
39612;SDS011;25303;48.896;13.342;2022-10-22T12:46:20;1.67;;;1.50;;
39612;SDS011;25303;48.896;13.342;2022-10-22T12:49:07;1.98;;;1.60;;
39612;SDS011;25303;48.896;13.342;2022-10-22T12:51:55;1.90;;;1.60;;
39612;SDS011;25303;48.896;13.342;2022-10-22T12:54:44;2.75;;;1.88;;
39612;SDS011;25303;48.896;13.342;2022-10-22T12:57:29;2.58;;;2.13;;
39612;SDS011;25303;48.896;13.342;2022-10-22T13:00:21;4.85;;;2.35;;
39612;SDS011;25303;48.896;13.342;2022-10-22T13:03:06;3.83;;;2.55;;
39612;SDS011;25303;48.896;13.342;2022-10-22T13:05:50;3.22;;;2.60;;
39612;SDS011;25303;48.896;13.342;2022-10-22T13:08:33;5.18;;;2.67;;
39612;SDS011;25303;48.896;13.342;2022-10-22T13:11:19;4.45;;;3.53;;
39612;SDS011;25303;48.896;13.342;2022-10-22T13:14:02;4.80;;;3.63;;
39612;SDS011;25303;48.896;13.342;2022-10-22T13:19:51;4.90;;;3.92;;
39612;SDS011;25303;48.896;13.342;2022-10-22T13:22:54;5.07;;;4.15;;
39612;SDS011;25303;48.896;13.342;2022-10-22T13:25:40;3.50;;;3.13;;
39612;SDS011;25303;48.896;13.342;2022-10-22T13:28:23;4.32;;;2.92;;
39612;SDS011;25303;48.896;13.342;2022-10-22T13:31:08;3.47;;;2.60;;
39612;SDS011;25303;48.896;13.342;2022-10-22T13:33:58;2.33;;;2.10;;
39612;SDS011;25303;48.896;13.342;2022-10-22T13:36:50;3.33;;;2.13;;
39612;SDS011;25303;48.896;13.342;2022-10-22T13:39:35;2.75;;;2.05;;
39612;SDS011;25303;48.896;13.342;2022-10-22T13:42:18;3.08;;;2.30;;
39612;SDS011;25303;48.896;13.342;2022-10-22T13:45:00;2.80;;;2.03;;
39612;SDS011;25303;48.896;13.342;2022-10-22T13:47:44;3.25;;;2.10;;
39612;SDS011;25303;48.896;13.342;2022-10-22T13:50:32;4.22;;;2.63;;
39612;SDS011;25303;48.896;13.342;2022-10-22T13:53:15;12.50;;;5.80;;
39612;SDS011;25303;48.896;13.342;2022-10-22T13:56:01;9.88;;;5.28;;
39612;SDS011;25303;48.896;13.342;2022-10-22T13:58:45;16.95;;;6.88;;
39612;SDS011;25303;48.896;13.342;2022-10-22T14:01:29;6.47;;;3.78;;
39612;SDS011;25303;48.896;13.342;2022-10-22T14:04:12;10.48;;;5.25;;
39612;SDS011;25303;48.896;13.342;2022-10-22T14:06:55;4.80;;;2.95;;
39612;SDS011;25303;48.896;13.342;2022-10-22T14:09:44;3.72;;;2.10;;
39612;SDS011;25303;48.896;13.342;2022-10-22T14:12:28;3.67;;;2.22;;
39612;SDS011;25303;48.896;13.342;2022-10-22T14:15:12;3.67;;;2.30;;
39612;SDS011;25303;48.896;13.342;2022-10-22T14:20:40;2.78;;;1.75;;
39612;SDS011;25303;48.896;13.342;2022-10-22T14:23:24;2.58;;;2.13;;
39612;SDS011;25303;48.896;13.342;2022-10-22T14:28:57;3.47;;;1.92;;
39612;SDS011;25303;48.896;13.342;2022-10-22T14:31:55;2.67;;;1.40;;
39612;SDS011;25303;48.896;13.342;2022-10-22T14:34:38;2.55;;;1.60;;
39612;SDS011;25303;48.896;13.342;2022-10-22T14:37:21;4.85;;;1.70;;
39612;SDS011;25303;48.896;13.342;2022-10-22T14:40:05;2.92;;;1.45;;
39612;SDS011;25303;48.896;13.342;2022-10-22T14:42:49;2.40;;;1.50;;
39612;SDS011;25303;48.896;13.342;2022-10-22T14:45:34;1.80;;;1.38;;
39612;SDS011;25303;48.896;13.342;2022-10-22T14:48:17;3.08;;;1.40;;
39612;SDS011;25303;48.896;13.342;2022-10-22T14:51:04;3.33;;;1.45;;
39612;SDS011;25303;48.896;13.342;2022-10-22T14:53:48;2.40;;;1.17;;
39612;SDS011;25303;48.896;13.342;2022-10-22T14:56:31;2.35;;;1.25;;
39612;SDS011;25303;48.896;13.342;2022-10-22T14:59:15;1.95;;;1.25;;
39612;SDS011;25303;48.896;13.342;2022-10-22T15:01:59;1.60;;;1.20;;
39612;SDS011;25303;48.896;13.342;2022-10-22T15:04:42;1.90;;;1.35;;
39612;SDS011;25303;48.896;13.342;2022-10-22T15:07:25;3.75;;;1.52;;
39612;SDS011;25303;48.896;13.342;2022-10-22T15:10:08;3.58;;;1.30;;
39612;SDS011;25303;48.896;13.342;2022-10-22T15:12:52;2.85;;;1.40;;
39612;SDS011;25303;48.896;13.342;2022-10-22T15:15:35;4.05;;;1.35;;
39612;SDS011;25303;48.896;13.342;2022-10-22T15:18:22;3.72;;;1.30;;
39612;SDS011;25303;48.896;13.342;2022-10-22T15:21:06;2.75;;;1.15;;
39612;SDS011;25303;48.896;13.342;2022-10-22T15:23:54;2.95;;;1.30;;
39612;SDS011;25303;48.896;13.342;2022-10-22T15:26:37;3.42;;;1.50;;
39612;SDS011;25303;48.896;13.342;2022-10-22T15:29:20;5.05;;;2.20;;
39612;SDS011;25303;48.896;13.342;2022-10-22T15:32:03;3.67;;;1.83;;
39612;SDS011;25303;48.896;13.342;2022-10-22T15:34:48;1.63;;;1.10;;
39612;SDS011;25303;48.896;13.342;2022-10-22T15:37:34;2.33;;;1.10;;
39612;SDS011;25303;48.896;13.342;2022-10-22T15:40:18;2.85;;;1.15;;
39612;SDS011;25303;48.896;13.342;2022-10-22T15:43:01;1.70;;;1.20;;
39612;SDS011;25303;48.896;13.342;2022-10-22T15:45:44;1.23;;;0.85;;
39612;SDS011;25303;48.896;13.342;2022-10-22T15:48:42;1.45;;;0.90;;
39612;SDS011;25303;48.896;13.342;2022-10-22T15:51:27;1.10;;;1.00;;
39612;SDS011;25303;48.896;13.342;2022-10-22T15:54:12;1.77;;;0.98;;
39612;SDS011;25303;48.896;13.342;2022-10-22T15:56:55;1.60;;;1.10;;
39612;SDS011;25303;48.896;13.342;2022-10-22T15:59:39;2.80;;;0.90;;
39612;SDS011;25303;48.896;13.342;2022-10-22T16:02:22;1.45;;;0.80;;
39612;SDS011;25303;48.896;13.342;2022-10-22T16:05:05;1.20;;;0.80;;
39612;SDS011;25303;48.896;13.342;2022-10-22T16:07:50;1.30;;;0.70;;
39612;SDS011;25303;48.896;13.342;2022-10-22T16:10:36;1.13;;;0.70;;
39612;SDS011;25303;48.896;13.342;2022-10-22T16:13:19;1.00;;;0.60;;
39612;SDS011;25303;48.896;13.342;2022-10-22T16:16:04;2.00;;;0.80;;
39612;SDS011;25303;48.896;13.342;2022-10-22T16:18:48;1.25;;;0.70;;
39612;SDS011;25303;48.896;13.342;2022-10-22T16:21:32;1.33;;;0.80;;
39612;SDS011;25303;48.896;13.342;2022-10-22T16:24:16;2.15;;;1.13;;
39612;SDS011;25303;48.896;13.342;2022-10-22T16:26:59;1.38;;;1.00;;
39612;SDS011;25303;48.896;13.342;2022-10-22T16:29:43;2.20;;;0.90;;
39612;SDS011;25303;48.896;13.342;2022-10-22T16:32:26;1.00;;;0.90;;
39612;SDS011;25303;48.896;13.342;2022-10-22T16:35:09;2.05;;;0.80;;
39612;SDS011;25303;48.896;13.342;2022-10-22T16:37:52;0.95;;;0.80;;
39612;SDS011;25303;48.896;13.342;2022-10-22T16:40:36;2.47;;;0.70;;
39612;SDS011;25303;48.896;13.342;2022-10-22T16:43:19;1.40;;;0.98;;
39612;SDS011;25303;48.896;13.342;2022-10-22T16:46:02;2.28;;;1.13;;